Round Mountain, Texas
Current Conditions -  °F | °C
As of 2:15 AM on Monday 24 Nov 2014 (Local Time) from KDZB Reporting Station
Clear Clear  
Wind Chill: 49°   Ceiling: Unl
Heat Index: 49°   Visibility: 10mi
Dew Point: 36°   Wind: 0mph
Humidity: 61%   Direction: NA
Pressure: 29.95"   Gusts: NA
Location:  30.43°N, 98.34°W
Report Text: KDZB 240815Z AUTO 00000KT 10SM CLR 10/02 A2995 RMK AO2 T00970024
Loading
Personal Weather Stations






























Interactive Weather Map New forecast layout! Learn more

10-Day Weather Forecast

Advertisements
Track Severe Weather on mobile